CYNL

METAR CYNL 221200Z AUTO 00000KT 9SM CLR M03/M05 A3017 RMK AO1 SLP242
METAR
LOCATION
CYNL
DATE - TIME
221200Z
WIND
CALM WIND
VISIBILITY
9SM
RUNWAY VISUAL RANGE
NOT REPORTED
WEATHER
CLOUDINESS
CLR
TEMP / DEWPOINT
-3 ºC / -5 ºC
ALTIMETER
30.17 in. Hg
RECENT WEATHER
NOT REPORTED
WIND SHEAR
NOT REPORTED
REMARKS
RMK AO1 SLP242
SEA LEVEL PRESSURE: hPa

CYNL

METAR CYNL 221100Z AUTO 11002KT 9SM CLR M04/M05 A3018 RMK AO1 SLP244
METAR
LOCATION
CYNL
DATE - TIME
221100Z
WIND
110 TRUE @ 2 KNOTS
VISIBILITY
9SM
RUNWAY VISUAL RANGE
NOT REPORTED
WEATHER
CLOUDINESS
CLR
TEMP / DEWPOINT
-4 ºC / -5 ºC
ALTIMETER
30.18 in. Hg
RECENT WEATHER
NOT REPORTED
WIND SHEAR
NOT REPORTED
REMARKS
RMK AO1 SLP244
SEA LEVEL PRESSURE: hPa

CYNL

METAR CYNL 221000Z AUTO 00000KT 9SM CLR M04/M05 A3018 RMK AO1 SLP247
METAR
LOCATION
CYNL
DATE - TIME
221000Z
WIND
CALM WIND
VISIBILITY
9SM
RUNWAY VISUAL RANGE
NOT REPORTED
WEATHER
CLOUDINESS
CLR
TEMP / DEWPOINT
-4 ºC / -5 ºC
ALTIMETER
30.18 in. Hg
RECENT WEATHER
NOT REPORTED
WIND SHEAR
NOT REPORTED
REMARKS
RMK AO1 SLP247
SEA LEVEL PRESSURE: hPa

Your time UTC time
 
 
Weather data provided by AXYS Technologies Inc., www.axystechnologies.com
 
Station History